• Join FlightAware (Why Join?)
  • Login
  • US Flag 
07:22PM EDT


 

Airport Tracker/Info


-or-


 

Live Flight TrackerFlight Track Log ✈ EJM685 ✈ 17-Nov-2013 ✈ KBUF - KTEB

Flight Track Log - Related Links

Times and Time Zones

All times are in EST time to prevent confusion due to time zone crossing. See the EJM685 flight status page for this flight to view local times or setup timezone preferences in your user account.

Time Position Orientation Groundspeed Altitude Reporting Facility
EST Latitude Longitude Course Direction KTS MPH feet Rate Location/Type
05:40PM 42.9333 -78.7167 148° Southeast 148 170 1,600  Level Buffalo TRACON
05:42PM 42.8544 -78.6497 148° Southeast 263 303 8,100 3,360 Climbing Cleveland Center
05:43PM 42.8153 -78.5667 123° Southeast 287 330 11,000 3,000 Climbing Cleveland Center
05:44PM 42.7683 -78.4142 113° Southeast 382 440 14,300 3,600 Climbing Cleveland Center
05:45PM 42.7519 -78.2642 98° East 399 459 18,400 3,240 Climbing Cleveland Center
05:46PM 42.7353 -78.1081 98° East 423 487 20,900 2,100 Climbing Cleveland Center
05:47PM 42.7158 -77.9439 99° East 439 505 22,700 960 Climbing Cleveland Center
05:48PM 42.6967 -77.7689 98° East 463 533 22,900 60 Climbing Cleveland Center
05:49PM 42.6753 -77.5975 100° East 473 544 22,900  Level Cleveland Center
05:50PM 42.6531 -77.4042 99° East 464 534 23,000 -180 Climbing Cleveland Center
05:51PM 42.6331 -77.2372 99° East 452 520 22,600 -540 Descending Cleveland Center
05:52PM 42.6128 -77.0744 100° East 443 510 22,000 -540 Descending Cleveland Center
05:53PM 42.5936 -76.9186 99° East 424 488 21,600 -420 Descending Cleveland Center
05:53PM 42.5864 -76.8589 99° East 418 481 21,400 -540 Descending Cleveland Center
05:54PM 42.5756 -76.7678 99° East 413 475 21,100 -600 Descending Boston Center
05:55PM 42.5561 -76.6175 100° East 407 468 20,500 -780 Descending Boston Center
05:56PM 42.5386 -76.4722 99° East 395 455 19,500 -1,020 Descending Boston Center
05:57PM 42.5194 -76.3283 100° East 389 448 18,500 -1,140 Descending Boston Center
05:58PM 42.4703 -76.1997 117° Southeast 366 421 17,200 -840 Descending Boston Center
05:59PM 42.4206 -76.0922 122° Southeast 343 395 16,800 -240 Descending Boston Center
06:00PM 42.3719 -75.9864 122° Southeast 334 384 16,800  Level Boston Center
06:01PM 42.3231 -75.8789 122° Southeast 336 387 16,800  Level Boston Center
06:02PM 42.2700 -75.7636 122° Southeast 332 382 16,800  Level Boston Center
06:03PM 42.2206 -75.6564 122° Southeast 334 384 16,800  Level Boston Center
06:04PM 42.1703 -75.5469 122° Southeast 340 391 16,800  Level Boston Center
06:05PM 42.1208 -75.4406 122° Southeast 338 389 16,800  Level Boston Center
06:06PM 42.0719 -75.3339 122° Southeast 335 386 16,800  Level Boston Center
06:07PM 42.0431 -75.2158 108° East 343 395 16,800 -240 Level Boston Center
06:08PM 42.0661 -75.0964 75° East 313 360 16,400 -840 Descending Boston Center
06:09PM 42.0564 -74.9881 97° East 294 338 15,200 -1,140 Descending Boston Center
06:10PM 42.0417 -74.8589 99° East 312 359 14,100 -1,080 Descending Boston Center
06:11PM 42.0278 -74.7522 100° East 292 336 13,000 -1,080 Descending Boston Center
06:12PM 42.0158 -74.6503 99° East 279 321 12,000 -1,020 Descending Boston Center
06:13PM 42.0031 -74.5394 99° East 279 321 11,000 -1,080 Descending Boston Center
06:14PM 41.9628 -74.4717 129° Southeast 236 272 9,900 -1,080 Descending Boston Center
06:15PM 41.9169 -74.5086 211° Southwest 200 230 8,900 -960 Descending Boston Center
06:16PM 41.8722 -74.5489 214° Southwest 210 242 7,900 -900 Descending Boston Center
06:17PM 41.7992 -74.5542 183° South 243 280 7,100 -420 Descending Boston Center
06:18PM 41.7314 -74.5625 185° South 246 283 7,100 -60 Level Boston Center
06:19PM 41.6636 -74.5681 184° South 246 283 7,000 -300 Descending Boston Center
06:20PM 41.5914 -74.5747 184° South 243 280 6,500 -480 Descending Boston Center
06:21PM 41.5242 -74.5806 184° South 242 278 6,100 -240 Descending Boston Center
06:22PM 41.4575 -74.5864 184° South 240 276 6,100 -60 Level Boston Center
06:23PM 41.3911 -74.5969 187° South 241 277 6,000  Descending Boston Center
06:24PM 41.3236 -74.6244 197° South 237 273 6,100  Climbing Boston Center
06:25PM 41.2578 -74.6100 171° South 251 289 6,100 -480 Level Boston Center
06:26PM 41.1833 -74.5833 165° South 245 282 5,100 -900 Descending New York TRACON
06:27PM 41.1500 -74.5167 124° Southeast 272 313 4,300 -540 Descending New York TRACON
06:28PM 41.1500 -74.4167 90° East 264 304 4,100 -240 Descending New York TRACON
06:29PM 41.1500 -74.3333 90° East 212 244 3,900 -360 Descending New York TRACON
06:30PM 41.1500 -74.2500 90° East 207 238 3,400 -420 Descending New York TRACON
06:31PM 41.1167 -74.2000 131° Southeast 190 219 3,100 -180 Descending New York TRACON
06:32PM 41.0833 -74.1333 124° Southeast 189 217 3,100 -120 Level New York TRACON
06:33PM 41.0667 -74.1000 124° Southeast 193 222 2,900 -540 Descending New York TRACON
06:34PM 41.0167 -74.0500 143° Southeast 171 197 2,100 -420 Descending New York TRACON
06:35PM 40.9833 -74.0500 180° South 149 171 2,100 -120 Level New York TRACON
06:36PM 40.9500 -74.0500 180° South 136 157 1,900 -480 Descending New York TRACON
06:37PM 40.9167 -74.0500 180° South 112 129 1,200 -660 Descending New York TRACON
06:38PM 40.8833 -74.0500 180° South 119 137 600 -600 Descending New York TRACON
06:40PM 40.8500 -74.0500 158° South  Level FlightAware Approximate
06:47PM 40.8501 -74.0608 158° South  Level Estimated
06:48PM 40.8501 -74.0608 158° South  Level Estimated
06:49PM 40.8501 -74.0608 158° South  Level Estimated
06:50PM 40.8501 -74.0608 158° South  Level Estimated
06:51PM 40.8501 -74.0608 158° South  Level Estimated
06:52PM 40.8501 -74.0608 158° South  Level Estimated
06:53PM 40.8501 -74.0608 158° South  Level Estimated
06:54PM 40.8501 -74.0608 158° South  Level Estimated